sensor_id;sensor_type;location;lat;lon;timestamp;pressure;altitude;pressure_sealevel;temperature;humidity
73267;BME280;61495;53.400;7.608;2023-11-22T00:01:05;102809.41;;;1.78;100.00
73267;BME280;61495;53.400;7.608;2023-11-22T00:03:31;102808.75;;;1.75;100.00
73267;BME280;61495;53.400;7.608;2023-11-22T00:05:57;102808.75;;;1.75;100.00
73267;BME280;61495;53.400;7.608;2023-11-22T00:08:22;102808.75;;;1.75;100.00
73267;BME280;61495;53.400;7.608;2023-11-22T00:10:48;102801.97;;;1.71;100.00
73267;BME280;61495;53.400;7.608;2023-11-22T00:13:13;102802.19;;;1.67;100.00
73267;BME280;61495;53.400;7.608;2023-11-22T00:15:39;102805.97;;;1.63;100.00
73267;BME280;61495;53.400;7.608;2023-11-22T00:18:04;102807.13;;;1.59;100.00
73267;BME280;61495;53.400;7.608;2023-11-22T00:20:30;102809.97;;;1.56;100.00
73267;BME280;61495;53.400;7.608;2023-11-22T00:22:56;102813.53;;;1.55;100.00
73267;BME280;61495;53.400;7.608;2023-11-22T00:25:21;102829.59;;;1.52;100.00
73267;BME280;61495;53.400;7.608;2023-11-22T00:27:46;102833.19;;;1.51;100.00
73267;BME280;61495;53.400;7.608;2023-11-22T00:30:13;102834.88;;;1.52;100.00
73267;BME280;61495;53.400;7.608;2023-11-22T00:32:39;102843.75;;;1.51;100.00
73267;BME280;61495;53.400;7.608;2023-11-22T00:35:06;102840.25;;;1.51;100.00
73267;BME280;61495;53.400;7.608;2023-11-22T00:37:32;102842.25;;;1.47;100.00
73267;BME280;61495;53.400;7.608;2023-11-22T00:39:59;102842.25;;;1.47;100.00
73267;BME280;61495;53.400;7.608;2023-11-22T00:42:25;102843.97;;;1.48;100.00
73267;BME280;61495;53.400;7.608;2023-11-22T00:44:52;102849.63;;;1.42;100.00
73267;BME280;61495;53.400;7.608;2023-11-22T00:47:18;102847.00;;;1.42;100.00
73267;BME280;61495;53.400;7.608;2023-11-22T00:49:44;102844.34;;;1.42;100.00
73267;BME280;61495;53.400;7.608;2023-11-22T00:52:09;102847.19;;;1.39;100.00
73267;BME280;61495;53.400;7.608;2023-11-22T00:54:34;102830.56;;;1.37;100.00
73267;BME280;61495;53.400;7.608;2023-11-22T00:57:00;102839.47;;;1.36;100.00
73267;BME280;61495;53.400;7.608;2023-11-22T00:59:25;102844.75;;;1.36;100.00
73267;BME280;61495;53.400;7.608;2023-11-22T01:01:51;102856.97;;;1.37;100.00
73267;BME280;61495;53.400;7.608;2023-11-22T01:04:17;102865.84;;;1.36;100.00
73267;BME280;61495;53.400;7.608;2023-11-22T01:06:42;102867.84;;;1.33;100.00
73267;BME280;61495;53.400;7.608;2023-11-22T01:09:08;102876.63;;;1.33;100.00
73267;BME280;61495;53.400;7.608;2023-11-22T01:11:34;102883.75;;;1.31;100.00
73267;BME280;61495;53.400;7.608;2023-11-22T01:14:00;102881.25;;;1.30;100.00
73267;BME280;61495;53.400;7.608;2023-11-22T01:16:25;102880.56;;;1.26;100.00
73267;BME280;61495;53.400;7.608;2023-11-22T01:18:51;102885.09;;;1.24;100.00
73267;BME280;61495;53.400;7.608;2023-11-22T01:21:18;102892.19;;;1.24;100.00
73267;BME280;61495;53.400;7.608;2023-11-22T01:23:44;102884.44;;;1.21;100.00
73267;BME280;61495;53.400;7.608;2023-11-22T01:26:11;102886.22;;;1.20;100.00
73267;BME280;61495;53.400;7.608;2023-11-22T01:28:36;102892.63;;;1.16;100.00
73267;BME280;61495;53.400;7.608;2023-11-22T01:31:02;102882.06;;;1.16;100.00
73267;BME280;61495;53.400;7.608;2023-11-22T01:33:28;102881.44;;;1.13;100.00
73267;BME280;61495;53.400;7.608;2023-11-22T01:35:54;102870.97;;;1.11;100.00
73267;BME280;61495;53.400;7.608;2023-11-22T01:38:19;102873.72;;;1.09;100.00
73267;BME280;61495;53.400;7.608;2023-11-22T01:40:46;102860.59;;;1.08;100.00
73267;BME280;61495;53.400;7.608;2023-11-22T01:43:18;102874.72;;;1.07;100.00
73267;BME280;61495;53.400;7.608;2023-11-22T01:45:44;102866.72;;;1.08;100.00
73267;BME280;61495;53.400;7.608;2023-11-22T01:48:11;102865.69;;;1.11;100.00
73267;BME280;61495;53.400;7.608;2023-11-22T01:50:40;102859.66;;;1.09;100.00
73267;BME280;61495;53.400;7.608;2023-11-22T01:53:08;102869.25;;;1.10;100.00
73267;BME280;61495;53.400;7.608;2023-11-22T01:55:35;102868.53;;;1.08;100.00
73267;BME280;61495;53.400;7.608;2023-11-22T01:58:01;102868.44;;;1.09;100.00
73267;BME280;61495;53.400;7.608;2023-11-22T02:00:32;102874.66;;;1.08;100.00
73267;BME280;61495;53.400;7.608;2023-11-22T02:02:57;102878.34;;;1.06;100.00
73267;BME280;61495;53.400;7.608;2023-11-22T02:05:23;102854.78;;;1.03;100.00
73267;BME280;61495;53.400;7.608;2023-11-22T02:07:48;102857.59;;;1.00;100.00
73267;BME280;61495;53.400;7.608;2023-11-22T02:10:13;102846.19;;;0.99;100.00
73267;BME280;61495;53.400;7.608;2023-11-22T02:12:39;102845.34;;;0.99;100.00
73267;BME280;61495;53.400;7.608;2023-11-22T02:15:05;102852.50;;;0.97;100.00
73267;BME280;61495;53.400;7.608;2023-11-22T02:17:31;102852.72;;;0.94;100.00
73267;BME280;61495;53.400;7.608;2023-11-22T02:19:57;102847.63;;;0.91;100.00
73267;BME280;61495;53.400;7.608;2023-11-22T02:22:23;102857.44;;;0.89;100.00
73267;BME280;61495;53.400;7.608;2023-11-22T02:24:48;102856.75;;;0.85;100.00
73267;BME280;61495;53.400;7.608;2023-11-22T02:27:14;102858.75;;;0.82;100.00
73267;BME280;61495;53.400;7.608;2023-11-22T02:29:39;102853.66;;;0.79;100.00
73267;BME280;61495;53.400;7.608;2023-11-22T02:32:05;102862.50;;;0.78;100.00
73267;BME280;61495;53.400;7.608;2023-11-22T02:34:31;102862.69;;;0.75;100.00
73267;BME280;61495;53.400;7.608;2023-11-22T02:36:56;102868.13;;;0.72;100.00
73267;BME280;61495;53.400;7.608;2023-11-22T02:39:25;102875.31;;;0.70;100.00
73267;BME280;61495;53.400;7.608;2023-11-22T02:41:54;102865.78;;;0.67;100.00
73267;BME280;61495;53.400;7.608;2023-11-22T02:44:19;102866.84;;;0.65;100.00
73267;BME280;61495;53.400;7.608;2023-11-22T02:46:45;102870.41;;;0.64;100.00
73267;BME280;61495;53.400;7.608;2023-11-22T02:49:10;102874.94;;;0.62;100.00
73267;BME280;61495;53.400;7.608;2023-11-22T02:51:36;102877.63;;;0.60;100.00
73267;BME280;61495;53.400;7.608;2023-11-22T02:54:01;102882.06;;;0.60;100.00
73267;BME280;61495;53.400;7.608;2023-11-22T02:56:27;102873.41;;;0.57;100.00
73267;BME280;61495;53.400;7.608;2023-11-22T02:58:52;102876.97;;;0.56;100.00
73267;BME280;61495;53.400;7.608;2023-11-22T03:01:18;102882.44;;;0.53;100.00
73267;BME280;61495;53.400;7.608;2023-11-22T03:03:43;102879.03;;;0.51;100.00
73267;BME280;61495;53.400;7.608;2023-11-22T03:06:21;102886.94;;;0.51;100.00
73267;BME280;61495;53.400;7.608;2023-11-22T03:08:46;102894.13;;;0.49;100.00
73267;BME280;61495;53.400;7.608;2023-11-22T03:11:13;102908.22;;;0.48;100.00
73267;BME280;61495;53.400;7.608;2023-11-22T03:13:38;102911.03;;;0.45;100.00
73267;BME280;61495;53.400;7.608;2023-11-22T03:16:04;102922.44;;;0.46;100.00
73267;BME280;61495;53.400;7.608;2023-11-22T03:18:29;102926.13;;;0.43;100.00
73267;BME280;61495;53.400;7.608;2023-11-22T03:20:54;102932.31;;;0.42;100.00
73267;BME280;61495;53.400;7.608;2023-11-22T03:23:20;102940.41;;;0.39;100.00
73267;BME280;61495;53.400;7.608;2023-11-22T03:25:46;102938.72;;;0.38;100.00
73267;BME280;61495;53.400;7.608;2023-11-22T03:28:11;102950.94;;;0.39;100.00
73267;BME280;61495;53.400;7.608;2023-11-22T03:30:36;102957.94;;;0.40;100.00
73267;BME280;61495;53.400;7.608;2023-11-22T03:33:02;102962.44;;;0.38;100.00
73267;BME280;61495;53.400;7.608;2023-11-22T03:35:27;102960.91;;;0.34;100.00
73267;BME280;61495;53.400;7.608;2023-11-22T03:37:54;102950.44;;;0.33;100.00
73267;BME280;61495;53.400;7.608;2023-11-22T03:40:19;102946.19;;;0.30;100.00
73267;BME280;61495;53.400;7.608;2023-11-22T03:42:45;102933.13;;;0.29;100.00
73267;BME280;61495;53.400;7.608;2023-11-22T03:45:11;102916.63;;;0.25;100.00
73267;BME280;61495;53.400;7.608;2023-11-22T03:47:38;102923.63;;;0.26;100.00
73267;BME280;61495;53.400;7.608;2023-11-22T03:50:04;102916.47;;;0.28;100.00
73267;BME280;61495;53.400;7.608;2023-11-22T03:52:30;102914.84;;;0.26;100.00
73267;BME280;61495;53.400;7.608;2023-11-22T03:54:56;102914.94;;;0.24;100.00
73267;BME280;61495;53.400;7.608;2023-11-22T03:57:22;102910.69;;;0.22;100.00
73267;BME280;61495;53.400;7.608;2023-11-22T03:59:47;102913.44;;;0.20;100.00
73267;BME280;61495;53.400;7.608;2023-11-22T04:02:13;102917.00;;;0.19;100.00
73267;BME280;61495;53.400;7.608;2023-11-22T04:04:39;102919.63;;;0.19;100.00
73267;BME280;61495;53.400;7.608;2023-11-22T04:07:06;102910.00;;;0.18;100.00
73267;BME280;61495;53.400;7.608;2023-11-22T04:09:32;102914.53;;;0.16;100.00
73267;BME280;61495;53.400;7.608;2023-11-22T04:11:58;102916.41;;;0.14;100.00
73267;BME280;61495;53.400;7.608;2023-11-22T04:14:24;102905.94;;;0.13;100.00
73267;BME280;61495;53.400;7.608;2023-11-22T04:16:49;102919.13;;;0.13;100.00
73267;BME280;61495;53.400;7.608;2023-11-22T04:19:15;102914.03;;;0.10;100.00
73267;BME280;61495;53.400;7.608;2023-11-22T04:21:40;102909.63;;;0.10;100.00
73267;BME280;61495;53.400;7.608;2023-11-22T04:24:06;102912.44;;;0.07;100.00
73267;BME280;61495;53.400;7.608;2023-11-22T04:26:31;102923.88;;;0.06;100.00
73267;BME280;61495;53.400;7.608;2023-11-22T04:28:57;102917.88;;;0.04;100.00
73267;BME280;61495;53.400;7.608;2023-11-22T04:31:23;102928.50;;;0.03;100.00
73267;BME280;61495;53.400;7.608;2023-11-22T04:33:49;102937.25;;;0.03;100.00
73267;BME280;61495;53.400;7.608;2023-11-22T04:36:15;102931.03;;;0.04;100.00
73267;BME280;61495;53.400;7.608;2023-11-22T04:38:41;102939.06;;;0.03;100.00
73267;BME280;61495;53.400;7.608;2023-11-22T04:41:07;102941.00;;;-0.01;100.00
73267;BME280;61495;53.400;7.608;2023-11-22T04:43:32;102941.19;;;-0.04;100.00
73267;BME280;61495;53.400;7.608;2023-11-22T04:45:58;102939.56;;;-0.07;100.00
73267;BME280;61495;53.400;7.608;2023-11-22T04:48:23;102949.16;;;-0.06;100.00
73267;BME280;61495;53.400;7.608;2023-11-22T04:50:49;102958.25;;;-0.11;100.00
73267;BME280;61495;53.400;7.608;2023-11-22T04:53:14;102961.16;;;-0.16;100.00
73267;BME280;61495;53.400;7.608;2023-11-22T04:55:39;102964.63;;;-0.15;100.00
73267;BME280;61495;53.400;7.608;2023-11-22T04:58:06;102968.19;;;-0.16;100.00
73267;BME280;61495;53.400;7.608;2023-11-22T05:00:31;102957.66;;;-0.16;100.00
73267;BME280;61495;53.400;7.608;2023-11-22T05:02:57;102957.66;;;-0.16;100.00
73267;BME280;61495;53.400;7.608;2023-11-22T05:05:22;102951.47;;;-0.15;100.00
73267;BME280;61495;53.400;7.608;2023-11-22T05:07:47;102942.72;;;-0.16;100.00
73267;BME280;61495;53.400;7.608;2023-11-22T05:10:13;102929.78;;;-0.20;100.00
73267;BME280;61495;53.400;7.608;2023-11-22T05:12:39;102924.44;;;-0.19;100.00
73267;BME280;61495;53.400;7.608;2023-11-22T05:15:05;102913.81;;;-0.17;100.00
73267;BME280;61495;53.400;7.608;2023-11-22T05:17:30;102915.69;;;-0.19;100.00
73267;BME280;61495;53.400;7.608;2023-11-22T05:19:55;102916.56;;;-0.19;100.00
73267;BME280;61495;53.400;7.608;2023-11-22T05:22:21;102918.50;;;-0.22;100.00
73267;BME280;61495;53.400;7.608;2023-11-22T05:24:46;102914.00;;;-0.20;100.00
73267;BME280;61495;53.400;7.608;2023-11-22T05:27:11;102915.69;;;-0.19;100.00
73267;BME280;61495;53.400;7.608;2023-11-22T05:29:37;102920.03;;;-0.18;100.00
73267;BME280;61495;53.400;7.608;2023-11-22T05:32:03;102915.69;;;-0.19;100.00
73267;BME280;61495;53.400;7.608;2023-11-22T05:34:29;102926.97;;;-0.17;100.00
73267;BME280;61495;53.400;7.608;2023-11-22T05:36:54;102934.88;;;-0.17;100.00
73267;BME280;61495;53.400;7.608;2023-11-22T05:39:19;102940.16;;;-0.17;100.00
73267;BME280;61495;53.400;7.608;2023-11-22T05:41:47;102949.00;;;-0.18;100.00
73267;BME280;61495;53.400;7.608;2023-11-22T05:44:14;102942.88;;;-0.19;100.00
73267;BME280;61495;53.400;7.608;2023-11-22T05:46:39;102940.09;;;-0.16;100.00
73267;BME280;61495;53.400;7.608;2023-11-22T05:49:04;102946.19;;;-0.15;100.00
73267;BME280;61495;53.400;7.608;2023-11-22T05:51:30;102941.41;;;-0.09;100.00
73267;BME280;61495;53.400;7.608;2023-11-22T05:53:55;102938.78;;;-0.09;100.00
73267;BME280;61495;53.400;7.608;2023-11-22T05:56:20;102937.97;;;-0.09;100.00
73267;BME280;61495;53.400;7.608;2023-11-22T05:58:46;102939.47;;;-0.05;100.00
73267;BME280;61495;53.400;7.608;2023-11-22T06:01:11;102941.19;;;-0.04;100.00
73267;BME280;61495;53.400;7.608;2023-11-22T06:03:37;102935.72;;;-0.01;100.00
73267;BME280;61495;53.400;7.608;2023-11-22T06:06:04;102938.38;;;-0.01;100.00
73267;BME280;61495;53.400;7.608;2023-11-22T06:08:30;102947.97;;;0.00;100.00
73267;BME280;61495;53.400;7.608;2023-11-22T06:10:56;102947.78;;;0.03;100.00
73267;BME280;61495;53.400;7.608;2023-11-22T06:13:23;102956.47;;;0.05;100.00
73267;BME280;61495;53.400;7.608;2023-11-22T06:15:48;102952.06;;;0.06;100.00
73267;BME280;61495;53.400;7.608;2023-11-22T06:18:14;102952.69;;;0.09;100.00
73267;BME280;61495;53.400;7.608;2023-11-22T06:20:41;102963.06;;;0.12;100.00
73267;BME280;61495;53.400;7.608;2023-11-22T06:23:06;102963.06;;;0.12;100.00
73267;BME280;61495;53.400;7.608;2023-11-22T06:25:32;102964.78;;;0.13;100.00
73267;BME280;61495;53.400;7.608;2023-11-22T06:27:57;102966.38;;;0.16;100.00
73267;BME280;61495;53.400;7.608;2023-11-22T06:30:22;102968.00;;;0.18;100.00
73267;BME280;61495;53.400;7.608;2023-11-22T06:32:50;102961.78;;;0.19;100.00
73267;BME280;61495;53.400;7.608;2023-11-22T06:35:15;102977.44;;;0.22;100.00
73267;BME280;61495;53.400;7.608;2023-11-22T06:37:43;102980.91;;;0.23;100.00
73267;BME280;61495;53.400;7.608;2023-11-22T06:40:08;102978.34;;;0.21;100.00
73267;BME280;61495;53.400;7.608;2023-11-22T06:42:34;102982.69;;;0.22;100.00
73267;BME280;61495;53.400;7.608;2023-11-22T06:44:59;102986.38;;;0.20;100.00
73267;BME280;61495;53.400;7.608;2023-11-22T06:47:26;102982.13;;;0.17;100.00
73267;BME280;61495;53.400;7.608;2023-11-22T06:49:52;102983.78;;;0.18;100.00
73267;BME280;61495;53.400;7.608;2023-11-22T06:52:18;102989.06;;;0.18;100.00
73267;BME280;61495;53.400;7.608;2023-11-22T06:54:44;102987.56;;;0.14;100.00
73267;BME280;61495;53.400;7.608;2023-11-22T06:57:09;102985.69;;;0.16;100.00
73267;BME280;61495;53.400;7.608;2023-11-22T06:59:34;102996.41;;;0.13;100.00
73267;BME280;61495;53.400;7.608;2023-11-22T07:02:00;102993.00;;;0.11;100.00
73267;BME280;61495;53.400;7.608;2023-11-22T07:04:25;102986.88;;;0.11;100.00
73267;BME280;61495;53.400;7.608;2023-11-22T07:06:50;102987.72;;;0.11;100.00
73267;BME280;61495;53.400;7.608;2023-11-22T07:09:16;103005.22;;;0.12;100.00
73267;BME280;61495;53.400;7.608;2023-11-22T07:11:41;102999.97;;;0.12;100.00
73267;BME280;61495;53.400;7.608;2023-11-22T07:14:09;102996.41;;;0.13;100.00
73267;BME280;61495;53.400;7.608;2023-11-22T07:16:34;102991.81;;;0.17;100.00
73267;BME280;61495;53.400;7.608;2023-11-22T07:19:00;102978.63;;;0.17;100.00
73267;BME280;61495;53.400;7.608;2023-11-22T07:21:28;102978.69;;;0.15;100.00
73267;BME280;61495;53.400;7.608;2023-11-22T07:23:55;102968.34;;;0.12;100.00
73267;BME280;61495;53.400;7.608;2023-11-22T07:26:20;102965.47;;;0.17;100.00
73267;BME280;61495;53.400;7.608;2023-11-22T07:28:46;102960.09;;;0.18;100.00
73267;BME280;61495;53.400;7.608;2023-11-22T07:31:11;102960.88;;;0.20;100.00
73267;BME280;61495;53.400;7.608;2023-11-22T07:33:36;102954.00;;;0.18;100.00
73267;BME280;61495;53.400;7.608;2023-11-22T07:36:02;102960.88;;;0.20;100.00
73267;BME280;61495;53.400;7.608;2023-11-22T07:38:28;102980.91;;;0.23;100.00
73267;BME280;61495;53.400;7.608;2023-11-22T07:40:58;102975.53;;;0.24;100.00
73267;BME280;61495;53.400;7.608;2023-11-22T07:43:23;102978.19;;;0.24;100.00
73267;BME280;61495;53.400;7.608;2023-11-22T07:45:49;102982.53;;;0.25;100.00
73267;BME280;61495;53.400;7.608;2023-11-22T07:48:16;102993.81;;;0.27;100.00
73267;BME280;61495;53.400;7.608;2023-11-22T07:50:41;102997.25;;;0.29;100.00
73267;BME280;61495;53.400;7.608;2023-11-22T07:53:12;103013.06;;;0.29;100.00
73267;BME280;61495;53.400;7.608;2023-11-22T07:55:38;103032.09;;;0.34;100.00
73267;BME280;61495;53.400;7.608;2023-11-22T07:58:04;103018.81;;;0.36;100.00
73267;BME280;61495;53.400;7.608;2023-11-22T08:00:32;103018.56;;;0.40;100.00
73267;BME280;61495;53.400;7.608;2023-11-22T08:02:59;103012.34;;;0.41;100.00
73267;BME280;61495;53.400;7.608;2023-11-22T08:05:26;103016.69;;;0.42;100.00
73267;BME280;61495;53.400;7.608;2023-11-22T08:07:53;103017.53;;;0.43;100.00
73267;BME280;61495;53.400;7.608;2023-11-22T08:10:18;103031.41;;;0.46;100.00
73267;BME280;61495;53.400;7.608;2023-11-22T08:12:46;103030.47;;;0.47;100.00
73267;BME280;61495;53.400;7.608;2023-11-22T08:15:13;103025.78;;;0.52;100.00
73267;BME280;61495;53.400;7.608;2023-11-22T08:17:40;103006.28;;;0.55;100.00
73267;BME280;61495;53.400;7.608;2023-11-22T08:20:06;103004.50;;;0.55;100.00
73267;BME280;61495;53.400;7.608;2023-11-22T08:22:37;103008.75;;;0.58;100.00
73267;BME280;61495;53.400;7.608;2023-11-22T08:25:04;103013.91;;;0.60;100.00
73267;BME280;61495;53.400;7.608;2023-11-22T08:27:31;103021.47;;;0.66;100.00
73267;BME280;61495;53.400;7.608;2023-11-22T08:29:57;103012.44;;;0.70;100.00
73267;BME280;61495;53.400;7.608;2023-11-22T08:32:23;102994.84;;;0.70;100.00
73267;BME280;61495;53.400;7.608;2023-11-22T08:34:53;102991.00;;;0.76;100.00
73267;BME280;61495;53.400;7.608;2023-11-22T08:37:18;102992.69;;;0.77;100.00
73267;BME280;61495;53.400;7.608;2023-11-22T08:39:43;102991.00;;;0.76;100.00
73267;BME280;61495;53.400;7.608;2023-11-22T08:42:09;102976.88;;;0.77;100.00
73267;BME280;61495;53.400;7.608;2023-11-22T08:44:38;102972.34;;;0.79;100.00
73267;BME280;61495;53.400;7.608;2023-11-22T08:47:03;102979.97;;;0.83;100.00
73267;BME280;61495;53.400;7.608;2023-11-22T08:49:29;102992.16;;;0.86;100.00
73267;BME280;61495;53.400;7.608;2023-11-22T08:51:56;103005.91;;;0.91;100.00
73267;BME280;61495;53.400;7.608;2023-11-22T08:54:21;103005.81;;;0.92;100.00
73267;BME280;61495;53.400;7.608;2023-11-22T08:56:47;103008.19;;;0.97;100.00
73267;BME280;61495;53.400;7.608;2023-11-22T08:59:12;103002.00;;;0.98;100.00
73267;BME280;61495;53.400;7.608;2023-11-22T09:01:38;103006.22;;;1.00;100.00
73267;BME280;61495;53.400;7.608;2023-11-22T09:04:03;103014.88;;;1.02;100.00
73267;BME280;61495;53.400;7.608;2023-11-22T09:06:30;103010.28;;;1.06;100.00
73267;BME280;61495;53.400;7.608;2023-11-22T09:08:55;103005.75;;;1.08;100.00
73267;BME280;61495;53.400;7.608;2023-11-22T09:11:21;103016.06;;;1.13;100.00
73267;BME280;61495;53.400;7.608;2023-11-22T09:13:48;103006.25;;;1.15;100.00
73267;BME280;61495;53.400;7.608;2023-11-22T09:16:15;103013.13;;;1.17;100.00
73267;BME280;61495;53.400;7.608;2023-11-22T09:18:42;103019.94;;;1.21;100.00
73267;BME280;61495;53.400;7.608;2023-11-22T09:21:08;103026.69;;;1.25;100.00
73267;BME280;61495;53.400;7.608;2023-11-22T09:23:34;103023.78;;;1.30;100.00
73267;BME280;61495;53.400;7.608;2023-11-22T09:26:02;103020.00;;;1.34;100.00
73267;BME280;61495;53.400;7.608;2023-11-22T09:28:27;103005.03;;;1.34;100.00
73267;BME280;61495;53.400;7.608;2023-11-22T09:30:53;103011.06;;;1.36;100.00
73267;BME280;61495;53.400;7.608;2023-11-22T09:33:18;103008.25;;;1.39;100.00
73267;BME280;61495;53.400;7.608;2023-11-22T09:35:46;103010.78;;;1.69;100.00
73267;BME280;61495;53.400;7.608;2023-11-22T09:38:13;103023.03;;;1.70;100.00
73267;BME280;61495;53.400;7.608;2023-11-22T09:43:04;103013.50;;;1.67;100.00
73267;BME280;61495;53.400;7.608;2023-11-22T09:45:30;103007.38;;;1.67;100.00
73267;BME280;61495;53.400;7.608;2023-11-22T09:47:56;102999.38;;;1.68;100.00
73267;BME280;61495;53.400;7.608;2023-11-22T09:53:11;102987.63;;;1.73;100.00
73267;BME280;61495;53.400;7.608;2023-11-22T09:55:41;102992.00;;;1.74;100.00
73267;BME280;61495;53.400;7.608;2023-11-22T09:58:10;102994.44;;;1.77;100.00
73267;BME280;61495;53.400;7.608;2023-11-22T10:00:37;102989.06;;;1.78;100.00
73267;BME280;61495;53.400;7.608;2023-11-22T10:03:03;102996.69;;;1.83;100.00
73267;BME280;61495;53.400;7.608;2023-11-22T10:05:28;103000.75;;;1.88;100.00
73267;BME280;61495;53.400;7.608;2023-11-22T10:07:54;103000.75;;;1.88;100.00
73267;BME280;61495;53.400;7.608;2023-11-22T10:10:21;103004.97;;;1.91;100.00
73267;BME280;61495;53.400;7.608;2023-11-22T10:12:53;103001.09;;;1.96;100.00
73267;BME280;61495;53.400;7.608;2023-11-22T10:15:21;102992.16;;;1.99;100.00
73267;BME280;61495;53.400;7.608;2023-11-22T10:20:22;102989.94;;;2.05;100.00
73267;BME280;61495;53.400;7.608;2023-11-22T10:22:47;102994.81;;;2.11;100.00
73267;BME280;61495;53.400;7.608;2023-11-22T10:25:14;102991.13;;;2.14;100.00
73267;BME280;61495;53.400;7.608;2023-11-22T10:27:46;102987.34;;;2.18;100.00
73267;BME280;61495;53.400;7.608;2023-11-22T10:30:17;102986.09;;;2.23;100.00
73267;BME280;61495;53.400;7.608;2023-11-22T10:32:43;102982.31;;;2.28;100.00
73267;BME280;61495;53.400;7.608;2023-11-22T10:35:09;102982.00;;;2.32;100.00
73267;BME280;61495;53.400;7.608;2023-11-22T10:37:35;102972.00;;;2.37;100.00
73267;BME280;61495;53.400;7.608;2023-11-22T10:40:01;102969.16;;;2.40;100.00
73267;BME280;61495;53.400;7.608;2023-11-22T10:42:29;102947.22;;;2.38;100.00
73267;BME280;61495;53.400;7.608;2023-11-22T10:44:55;102947.38;;;2.49;100.00
73267;BME280;61495;53.400;7.608;2023-11-22T10:47:22;102938.47;;;2.50;100.00
73267;BME280;61495;53.400;7.608;2023-11-22T10:49:48;102912.78;;;2.52;100.00
73267;BME280;61495;53.400;7.608;2023-11-22T10:52:14;102902.81;;;2.56;100.00
73267;BME280;61495;53.400;7.608;2023-11-22T10:54:44;102891.09;;;2.60;100.00
73267;BME280;61495;53.400;7.608;2023-11-22T10:57:16;102877.75;;;2.61;100.00
73267;BME280;61495;53.400;7.608;2023-11-22T10:59:48;102862.63;;;2.63;100.00
73267;BME280;61495;53.400;7.608;2023-11-22T11:02:21;102837.63;;;2.67;100.00
73267;BME280;61495;53.400;7.608;2023-11-22T11:04:55;102815.22;;;2.73;100.00
73267;BME280;61495;53.400;7.608;2023-11-22T11:07:27;102806.72;;;2.80;100.00
73267;BME280;61495;53.400;7.608;2023-11-22T11:09:55;102780.69;;;2.87;100.00
73267;BME280;61495;53.400;7.608;2023-11-22T11:12:22;102787.34;;;2.93;100.00
73267;BME280;61495;53.400;7.608;2023-11-22T11:14:49;102803.50;;;3.01;100.00
73267;BME280;61495;53.400;7.608;2023-11-22T11:17:15;102800.41;;;3.07;100.00
73267;BME280;61495;53.400;7.608;2023-11-22T11:19:40;102792.88;;;3.13;100.00
73267;BME280;61495;53.400;7.608;2023-11-22T11:22:10;102789.91;;;3.18;100.00
73267;BME280;61495;53.400;7.608;2023-11-22T11:24:40;102785.63;;;3.28;100.00
73267;BME280;61495;53.400;7.608;2023-11-22T11:27:10;102780.84;;;3.33;100.00
73267;BME280;61495;53.400;7.608;2023-11-22T11:29:36;102766.31;;;3.38;100.00
73267;BME280;61495;53.400;7.608;2023-11-22T11:32:10;102755.25;;;3.45;100.00
73267;BME280;61495;53.400;7.608;2023-11-22T11:35:02;102769.66;;;3.53;100.00
73267;BME280;61495;53.400;7.608;2023-11-22T11:37:31;102765.56;;;3.60;100.00
73267;BME280;61495;53.400;7.608;2023-11-22T11:39:58;102775.47;;;3.69;100.00
73267;BME280;61495;53.400;7.608;2023-11-22T11:42:23;102788.06;;;3.78;100.00
73267;BME280;61495;53.400;7.608;2023-11-22T11:47:26;102775.81;;;3.88;100.00
73267;BME280;61495;53.400;7.608;2023-11-22T11:49:52;102772.94;;;3.91;100.00
73267;BME280;61495;53.400;7.608;2023-11-22T11:52:17;102765.56;;;3.95;100.00
73267;BME280;61495;53.400;7.608;2023-11-22T11:54:43;102765.22;;;4.00;100.00
73267;BME280;61495;53.400;7.608;2023-11-22T11:57:08;102760.41;;;4.05;100.00
73267;BME280;61495;53.400;7.608;2023-11-22T11:59:34;102756.56;;;4.09;100.00
73267;BME280;61495;53.400;7.608;2023-11-22T12:02:00;102748.63;;;4.09;100.00
73267;BME280;61495;53.400;7.608;2023-11-22T12:04:26;102752.72;;;4.13;100.00
73267;BME280;61495;53.400;7.608;2023-11-22T12:06:51;102748.00;;;4.16;100.00
73267;BME280;61495;53.400;7.608;2023-11-22T12:09:24;102740.81;;;4.18;100.00
73267;BME280;61495;53.400;7.608;2023-11-22T12:11:50;102747.44;;;4.13;100.00
73267;BME280;61495;53.400;7.608;2023-11-22T12:14:16;102740.91;;;4.17;100.00
73267;BME280;61495;53.400;7.608;2023-11-22T12:16:41;102737.31;;;4.18;100.00
73267;BME280;61495;53.400;7.608;2023-11-22T12:19:09;102746.22;;;4.17;100.00
73267;BME280;61495;53.400;7.608;2023-11-22T12:21:36;102745.25;;;4.18;100.00
73267;BME280;61495;53.400;7.608;2023-11-22T12:24:02;102737.63;;;4.13;100.00
73267;BME280;61495;53.400;7.608;2023-11-22T12:26:31;102734.41;;;4.10;99.58
73267;BME280;61495;53.400;7.608;2023-11-22T12:28:58;102729.19;;;4.08;100.00
73267;BME280;61495;53.400;7.608;2023-11-22T12:31:24;102726.69;;;4.07;100.00
73267;BME280;61495;53.400;7.608;2023-11-22T12:33:50;102710.78;;;4.07;100.00
73267;BME280;61495;53.400;7.608;2023-11-22T12:36:16;102717.97;;;4.05;100.00
73267;BME280;61495;53.400;7.608;2023-11-22T12:38:43;102712.69;;;4.05;100.00
73267;BME280;61495;53.400;7.608;2023-11-22T12:41:09;102709.53;;;4.00;99.10
73267;BME280;61495;53.400;7.608;2023-11-22T12:43:34;102699.19;;;3.97;98.97
73267;BME280;61495;53.400;7.608;2023-11-22T12:46:05;102701.69;;;3.98;99.86
73267;BME280;61495;53.400;7.608;2023-11-22T12:48:38;102706.19;;;3.98;99.82
73267;BME280;61495;53.400;7.608;2023-11-22T12:51:15;102709.78;;;3.97;99.82
73267;BME280;61495;53.400;7.608;2023-11-22T12:53:40;102705.31;;;3.97;100.00
73267;BME280;61495;53.400;7.608;2023-11-22T12:56:06;102707.00;;;3.98;100.00